sensor_id;sensor_type;location;lat;lon;timestamp;P1;durP1;ratioP1;P2;durP2;ratioP2
20671;SDS011;10495;50.922;4.760;2023-02-28T00:00:48;7.80;;;6.20;;
20671;SDS011;10495;50.922;4.760;2023-02-28T00:03:13;9.90;;;6.83;;
20671;SDS011;10495;50.922;4.760;2023-02-28T00:05:39;10.17;;;6.80;;
20671;SDS011;10495;50.922;4.760;2023-02-28T00:08:06;13.00;;;8.30;;
20671;SDS011;10495;50.922;4.760;2023-02-28T00:10:32;9.13;;;6.73;;
20671;SDS011;10495;50.922;4.760;2023-02-28T00:12:59;11.10;;;6.80;;
20671;SDS011;10495;50.922;4.760;2023-02-28T00:15:31;11.50;;;7.53;;
20671;SDS011;10495;50.922;4.760;2023-02-28T00:17:57;12.30;;;8.10;;
20671;SDS011;10495;50.922;4.760;2023-02-28T00:20:23;15.77;;;8.77;;
20671;SDS011;10495;50.922;4.760;2023-02-28T00:22:49;15.70;;;9.23;;
20671;SDS011;10495;50.922;4.760;2023-02-28T00:25:21;14.23;;;8.20;;
20671;SDS011;10495;50.922;4.760;2023-02-28T00:27:48;14.63;;;8.90;;
20671;SDS011;10495;50.922;4.760;2023-02-28T00:30:15;14.73;;;8.70;;
20671;SDS011;10495;50.922;4.760;2023-02-28T00:32:43;15.03;;;8.67;;
20671;SDS011;10495;50.922;4.760;2023-02-28T00:35:09;12.77;;;7.70;;
20671;SDS011;10495;50.922;4.760;2023-02-28T00:37:36;14.83;;;8.27;;
20671;SDS011;10495;50.922;4.760;2023-02-28T00:40:02;15.47;;;8.43;;
20671;SDS011;10495;50.922;4.760;2023-02-28T00:42:29;14.40;;;8.60;;
20671;SDS011;10495;50.922;4.760;2023-02-28T00:44:55;14.43;;;8.00;;
20671;SDS011;10495;50.922;4.760;2023-02-28T00:47:21;10.87;;;7.30;;
20671;SDS011;10495;50.922;4.760;2023-02-28T00:49:46;12.07;;;7.73;;
20671;SDS011;10495;50.922;4.760;2023-02-28T00:52:12;11.77;;;7.30;;
20671;SDS011;10495;50.922;4.760;2023-02-28T00:54:37;9.07;;;6.90;;
20671;SDS011;10495;50.922;4.760;2023-02-28T00:57:03;12.40;;;7.40;;
20671;SDS011;10495;50.922;4.760;2023-02-28T00:59:29;8.67;;;6.67;;
20671;SDS011;10495;50.922;4.760;2023-02-28T01:01:54;11.60;;;7.63;;
20671;SDS011;10495;50.922;4.760;2023-02-28T01:04:20;10.80;;;7.20;;
20671;SDS011;10495;50.922;4.760;2023-02-28T01:06:45;11.20;;;7.37;;
20671;SDS011;10495;50.922;4.760;2023-02-28T01:09:11;14.80;;;9.63;;
20671;SDS011;10495;50.922;4.760;2023-02-28T01:11:37;16.13;;;10.47;;
20671;SDS011;10495;50.922;4.760;2023-02-28T01:14:03;16.13;;;10.17;;
20671;SDS011;10495;50.922;4.760;2023-02-28T01:16:29;11.37;;;8.63;;
20671;SDS011;10495;50.922;4.760;2023-02-28T01:18:54;13.70;;;9.10;;
20671;SDS011;10495;50.922;4.760;2023-02-28T01:21:20;13.87;;;9.33;;
20671;SDS011;10495;50.922;4.760;2023-02-28T01:23:47;13.07;;;8.63;;
20671;SDS011;10495;50.922;4.760;2023-02-28T01:26:17;14.03;;;8.70;;
20671;SDS011;10495;50.922;4.760;2023-02-28T01:28:47;11.87;;;8.20;;
20671;SDS011;10495;50.922;4.760;2023-02-28T01:31:14;11.73;;;7.63;;
20671;SDS011;10495;50.922;4.760;2023-02-28T01:33:40;12.90;;;7.00;;
20671;SDS011;10495;50.922;4.760;2023-02-28T01:36:08;12.80;;;6.63;;
20671;SDS011;10495;50.922;4.760;2023-02-28T01:38:40;14.13;;;7.13;;
20671;SDS011;10495;50.922;4.760;2023-02-28T01:41:06;11.40;;;7.10;;
20671;SDS011;10495;50.922;4.760;2023-02-28T01:43:52;11.83;;;7.30;;
20671;SDS011;10495;50.922;4.760;2023-02-28T01:46:20;11.00;;;7.53;;
20671;SDS011;10495;50.922;4.760;2023-02-28T01:48:56;13.30;;;8.13;;
20671;SDS011;10495;50.922;4.760;2023-02-28T01:51:31;12.60;;;8.30;;
20671;SDS011;10495;50.922;4.760;2023-02-28T01:54:16;13.83;;;8.97;;
20671;SDS011;10495;50.922;4.760;2023-02-28T01:56:48;12.73;;;8.97;;
20671;SDS011;10495;50.922;4.760;2023-02-28T01:59:23;14.83;;;8.90;;
20671;SDS011;10495;50.922;4.760;2023-02-28T02:02:02;11.47;;;8.77;;
20671;SDS011;10495;50.922;4.760;2023-02-28T02:04:31;13.47;;;8.47;;
20671;SDS011;10495;50.922;4.760;2023-02-28T02:07:02;11.70;;;8.07;;
20671;SDS011;10495;50.922;4.760;2023-02-28T02:09:28;12.40;;;8.37;;
20671;SDS011;10495;50.922;4.760;2023-02-28T02:11:53;15.37;;;8.87;;
20671;SDS011;10495;50.922;4.760;2023-02-28T02:36:59;10.57;;;7.60;;
20671;SDS011;10495;50.922;4.760;2023-02-28T02:39:40;9.30;;;6.57;;
20671;SDS011;10495;50.922;4.760;2023-02-28T02:42:15;11.33;;;7.43;;
20671;SDS011;10495;50.922;4.760;2023-02-28T02:44:51;10.17;;;7.13;;
20671;SDS011;10495;50.922;4.760;2023-02-28T02:47:26;10.73;;;7.23;;
20671;SDS011;10495;50.922;4.760;2023-02-28T02:49:55;8.87;;;6.33;;
20671;SDS011;10495;50.922;4.760;2023-02-28T02:52:24;10.20;;;6.20;;
20671;SDS011;10495;50.922;4.760;2023-02-28T02:54:57;11.33;;;6.77;;
20671;SDS011;10495;50.922;4.760;2023-02-28T02:57:26;9.10;;;6.80;;
20671;SDS011;10495;50.922;4.760;2023-02-28T03:00:03;11.40;;;7.10;;
20671;SDS011;10495;50.922;4.760;2023-02-28T03:02:33;9.03;;;7.07;;
20671;SDS011;10495;50.922;4.760;2023-02-28T03:05:04;9.53;;;6.83;;
20671;SDS011;10495;50.922;4.760;2023-02-28T03:07:37;9.80;;;6.73;;
20671;SDS011;10495;50.922;4.760;2023-02-28T03:10:02;7.23;;;5.70;;
20671;SDS011;10495;50.922;4.760;2023-02-28T03:12:50;9.40;;;5.83;;
20671;SDS011;10495;50.922;4.760;2023-02-28T03:15:25;9.27;;;6.70;;
20671;SDS011;10495;50.922;4.760;2023-02-28T03:23:35;10.53;;;6.57;;
20671;SDS011;10495;50.922;4.760;2023-02-28T03:26:12;8.43;;;6.80;;
20671;SDS011;10495;50.922;4.760;2023-02-28T03:28:49;9.80;;;7.00;;
20671;SDS011;10495;50.922;4.760;2023-02-28T03:31:21;11.87;;;6.87;;
20671;SDS011;10495;50.922;4.760;2023-02-28T03:34:04;8.23;;;6.43;;
20671;SDS011;10495;50.922;4.760;2023-02-28T03:36:39;10.33;;;6.80;;
20671;SDS011;10495;50.922;4.760;2023-02-28T03:39:14;8.23;;;6.67;;
20671;SDS011;10495;50.922;4.760;2023-02-28T03:41:45;8.07;;;5.73;;
20671;SDS011;10495;50.922;4.760;2023-02-28T03:44:18;9.93;;;6.13;;
20671;SDS011;10495;50.922;4.760;2023-02-28T03:46:56;10.97;;;6.40;;
20671;SDS011;10495;50.922;4.760;2023-02-28T03:49:54;11.37;;;6.70;;
20671;SDS011;10495;50.922;4.760;2023-02-28T03:52:23;8.97;;;6.60;;
20671;SDS011;10495;50.922;4.760;2023-02-28T03:54:55;10.47;;;6.70;;
20671;SDS011;10495;50.922;4.760;2023-02-28T03:57:43;12.70;;;7.93;;
20671;SDS011;10495;50.922;4.760;2023-02-28T04:02:54;10.80;;;7.03;;
20671;SDS011;10495;50.922;4.760;2023-02-28T04:05:20;11.40;;;7.77;;
20671;SDS011;10495;50.922;4.760;2023-02-28T04:07:46;14.23;;;7.40;;
20671;SDS011;10495;50.922;4.760;2023-02-28T04:10:13;10.37;;;8.13;;
20671;SDS011;10495;50.922;4.760;2023-02-28T04:12:40;11.63;;;8.07;;
20671;SDS011;10495;50.922;4.760;2023-02-28T04:15:05;13.07;;;8.10;;
20671;SDS011;10495;50.922;4.760;2023-02-28T04:17:32;13.47;;;8.23;;
20671;SDS011;10495;50.922;4.760;2023-02-28T04:19:57;12.03;;;7.47;;
20671;SDS011;10495;50.922;4.760;2023-02-28T04:22:23;11.67;;;8.20;;
20671;SDS011;10495;50.922;4.760;2023-02-28T04:24:51;9.80;;;7.90;;
20671;SDS011;10495;50.922;4.760;2023-02-28T04:27:19;12.23;;;7.80;;
20671;SDS011;10495;50.922;4.760;2023-02-28T04:29:45;11.67;;;8.27;;
20671;SDS011;10495;50.922;4.760;2023-02-28T04:32:11;10.87;;;7.83;;
20671;SDS011;10495;50.922;4.760;2023-02-28T04:34:36;11.97;;;7.97;;
20671;SDS011;10495;50.922;4.760;2023-02-28T04:37:02;11.37;;;8.27;;
20671;SDS011;10495;50.922;4.760;2023-02-28T04:39:29;11.10;;;7.80;;
20671;SDS011;10495;50.922;4.760;2023-02-28T04:41:55;12.10;;;7.93;;
20671;SDS011;10495;50.922;4.760;2023-02-28T04:44:21;11.77;;;7.60;;
20671;SDS011;10495;50.922;4.760;2023-02-28T04:46:47;10.20;;;7.53;;
20671;SDS011;10495;50.922;4.760;2023-02-28T04:49:13;10.53;;;7.40;;
20671;SDS011;10495;50.922;4.760;2023-02-28T04:51:40;11.93;;;7.47;;
20671;SDS011;10495;50.922;4.760;2023-02-28T04:54:06;12.83;;;7.10;;
20671;SDS011;10495;50.922;4.760;2023-02-28T04:56:32;11.27;;;7.87;;
20671;SDS011;10495;50.922;4.760;2023-02-28T04:58:58;12.67;;;8.50;;
20671;SDS011;10495;50.922;4.760;2023-02-28T05:01:25;11.07;;;7.50;;
20671;SDS011;10495;50.922;4.760;2023-02-28T05:03:54;12.57;;;8.40;;
20671;SDS011;10495;50.922;4.760;2023-02-28T05:06:21;9.93;;;7.70;;
20671;SDS011;10495;50.922;4.760;2023-02-28T05:08:48;12.67;;;8.97;;
20671;SDS011;10495;50.922;4.760;2023-02-28T05:11:19;14.23;;;8.93;;
20671;SDS011;10495;50.922;4.760;2023-02-28T05:13:50;16.17;;;10.37;;
20671;SDS011;10495;50.922;4.760;2023-02-28T05:16:16;17.33;;;9.20;;
20671;SDS011;10495;50.922;4.760;2023-02-28T05:18:43;12.77;;;9.07;;
20671;SDS011;10495;50.922;4.760;2023-02-28T05:21:23;13.80;;;8.67;;
20671;SDS011;10495;50.922;4.760;2023-02-28T05:23:54;13.10;;;8.63;;
20671;SDS011;10495;50.922;4.760;2023-02-28T05:26:21;12.50;;;8.00;;
20671;SDS011;10495;50.922;4.760;2023-02-28T05:28:47;15.27;;;9.03;;
20671;SDS011;10495;50.922;4.760;2023-02-28T05:31:13;14.33;;;9.63;;
20671;SDS011;10495;50.922;4.760;2023-02-28T05:33:38;13.37;;;8.47;;
20671;SDS011;10495;50.922;4.760;2023-02-28T05:36:04;14.03;;;8.60;;
20671;SDS011;10495;50.922;4.760;2023-02-28T05:38:30;13.40;;;8.83;;
20671;SDS011;10495;50.922;4.760;2023-02-28T05:40:56;13.13;;;9.53;;
20671;SDS011;10495;50.922;4.760;2023-02-28T05:43:22;13.43;;;9.93;;
20671;SDS011;10495;50.922;4.760;2023-02-28T05:45:48;12.43;;;9.30;;
20671;SDS011;10495;50.922;4.760;2023-02-28T05:48:13;11.83;;;8.73;;
20671;SDS011;10495;50.922;4.760;2023-02-28T05:50:39;14.07;;;9.93;;
20671;SDS011;10495;50.922;4.760;2023-02-28T05:53:05;13.03;;;8.60;;
20671;SDS011;10495;50.922;4.760;2023-02-28T05:55:31;12.70;;;8.73;;
20671;SDS011;10495;50.922;4.760;2023-02-28T05:57:57;15.60;;;9.40;;
20671;SDS011;10495;50.922;4.760;2023-02-28T06:00:23;10.00;;;8.00;;
20671;SDS011;10495;50.922;4.760;2023-02-28T06:02:49;12.40;;;8.80;;
20671;SDS011;10495;50.922;4.760;2023-02-28T06:05:15;13.07;;;9.43;;
20671;SDS011;10495;50.922;4.760;2023-02-28T06:07:42;15.53;;;9.33;;
20671;SDS011;10495;50.922;4.760;2023-02-28T06:10:08;15.60;;;9.37;;
20671;SDS011;10495;50.922;4.760;2023-02-28T06:12:35;16.77;;;10.43;;
20671;SDS011;10495;50.922;4.760;2023-02-28T06:15:01;14.63;;;9.40;;
20671;SDS011;10495;50.922;4.760;2023-02-28T06:17:27;14.63;;;10.33;;
20671;SDS011;10495;50.922;4.760;2023-02-28T06:19:53;13.07;;;9.83;;
20671;SDS011;10495;50.922;4.760;2023-02-28T06:22:18;13.67;;;9.10;;
20671;SDS011;10495;50.922;4.760;2023-02-28T06:24:44;13.20;;;9.60;;
20671;SDS011;10495;50.922;4.760;2023-02-28T06:27:10;13.43;;;9.37;;
20671;SDS011;10495;50.922;4.760;2023-02-28T06:29:35;13.03;;;9.23;;
20671;SDS011;10495;50.922;4.760;2023-02-28T06:32:04;12.57;;;8.80;;
20671;SDS011;10495;50.922;4.760;2023-02-28T06:34:30;18.00;;;10.37;;
20671;SDS011;10495;50.922;4.760;2023-02-28T06:36:56;14.30;;;10.23;;
20671;SDS011;10495;50.922;4.760;2023-02-28T06:39:21;14.30;;;10.13;;
20671;SDS011;10495;50.922;4.760;2023-02-28T06:41:47;14.87;;;9.70;;
20671;SDS011;10495;50.922;4.760;2023-02-28T06:44:15;12.40;;;9.17;;
20671;SDS011;10495;50.922;4.760;2023-02-28T06:46:42;11.97;;;8.97;;
20671;SDS011;10495;50.922;4.760;2023-02-28T06:49:09;14.50;;;9.27;;
20671;SDS011;10495;50.922;4.760;2023-02-28T06:51:36;14.63;;;9.80;;
20671;SDS011;10495;50.922;4.760;2023-02-28T06:54:04;14.93;;;9.30;;
20671;SDS011;10495;50.922;4.760;2023-02-28T06:56:30;13.03;;;9.20;;
20671;SDS011;10495;50.922;4.760;2023-02-28T06:58:56;13.30;;;9.50;;
20671;SDS011;10495;50.922;4.760;2023-02-28T07:01:22;15.23;;;9.57;;
20671;SDS011;10495;50.922;4.760;2023-02-28T07:03:48;16.00;;;10.30;;
20671;SDS011;10495;50.922;4.760;2023-02-28T07:06:21;14.10;;;9.60;;
20671;SDS011;10495;50.922;4.760;2023-02-28T07:08:48;14.33;;;9.67;;
20671;SDS011;10495;50.922;4.760;2023-02-28T07:11:14;13.07;;;9.03;;
20671;SDS011;10495;50.922;4.760;2023-02-28T07:13:40;13.67;;;9.80;;
20671;SDS011;10495;50.922;4.760;2023-02-28T07:16:07;15.53;;;9.87;;
20671;SDS011;10495;50.922;4.760;2023-02-28T07:18:37;13.47;;;9.03;;
20671;SDS011;10495;50.922;4.760;2023-02-28T07:21:07;17.80;;;10.97;;
20671;SDS011;10495;50.922;4.760;2023-02-28T07:23:34;16.40;;;10.97;;
20671;SDS011;10495;50.922;4.760;2023-02-28T07:26:00;15.50;;;10.60;;
20671;SDS011;10495;50.922;4.760;2023-02-28T07:28:26;14.70;;;10.70;;
20671;SDS011;10495;50.922;4.760;2023-02-28T07:30:52;17.40;;;10.70;;
20671;SDS011;10495;50.922;4.760;2023-02-28T07:33:17;12.33;;;10.23;;
20671;SDS011;10495;50.922;4.760;2023-02-28T07:35:43;19.20;;;12.13;;
20671;SDS011;10495;50.922;4.760;2023-02-28T07:38:09;17.30;;;11.27;;
20671;SDS011;10495;50.922;4.760;2023-02-28T07:40:35;17.30;;;11.90;;
20671;SDS011;10495;50.922;4.760;2023-02-28T07:43:01;14.30;;;10.00;;
20671;SDS011;10495;50.922;4.760;2023-02-28T07:45:27;17.73;;;10.47;;
20671;SDS011;10495;50.922;4.760;2023-02-28T07:47:54;15.70;;;10.80;;
20671;SDS011;10495;50.922;4.760;2023-02-28T07:50:21;14.03;;;9.73;;
20671;SDS011;10495;50.922;4.760;2023-02-28T07:52:46;16.87;;;10.17;;
20671;SDS011;10495;50.922;4.760;2023-02-28T07:55:12;18.93;;;10.90;;
20671;SDS011;10495;50.922;4.760;2023-02-28T07:57:39;13.60;;;9.20;;
20671;SDS011;10495;50.922;4.760;2023-02-28T08:00:06;17.53;;;10.90;;
20671;SDS011;10495;50.922;4.760;2023-02-28T08:02:37;11.37;;;9.10;;
20671;SDS011;10495;50.922;4.760;2023-02-28T08:05:03;11.90;;;8.67;;
20671;SDS011;10495;50.922;4.760;2023-02-28T08:07:29;12.47;;;8.33;;
20671;SDS011;10495;50.922;4.760;2023-02-28T08:09:55;9.87;;;7.73;;
20671;SDS011;10495;50.922;4.760;2023-02-28T08:12:20;14.87;;;7.70;;
20671;SDS011;10495;50.922;4.760;2023-02-28T08:14:46;11.33;;;7.40;;
20671;SDS011;10495;50.922;4.760;2023-02-28T08:17:11;10.73;;;8.10;;
20671;SDS011;10495;50.922;4.760;2023-02-28T08:19:37;9.63;;;7.17;;
20671;SDS011;10495;50.922;4.760;2023-02-28T08:22:03;9.60;;;6.47;;
20671;SDS011;10495;50.922;4.760;2023-02-28T08:24:29;9.93;;;6.60;;
20671;SDS011;10495;50.922;4.760;2023-02-28T08:26:55;11.93;;;6.37;;
20671;SDS011;10495;50.922;4.760;2023-02-28T08:29:21;9.83;;;6.77;;
20671;SDS011;10495;50.922;4.760;2023-02-28T08:31:47;10.60;;;6.87;;
20671;SDS011;10495;50.922;4.760;2023-02-28T08:34:13;12.40;;;6.33;;
20671;SDS011;10495;50.922;4.760;2023-02-28T08:36:40;8.57;;;6.33;;
20671;SDS011;10495;50.922;4.760;2023-02-28T08:39:07;11.77;;;5.80;;
20671;SDS011;10495;50.922;4.760;2023-02-28T08:41:34;8.23;;;6.10;;
20671;SDS011;10495;50.922;4.760;2023-02-28T08:43:59;9.73;;;6.43;;
20671;SDS011;10495;50.922;4.760;2023-02-28T08:46:25;10.40;;;6.70;;
20671;SDS011;10495;50.922;4.760;2023-02-28T08:48:51;8.83;;;6.50;;
20671;SDS011;10495;50.922;4.760;2023-02-28T08:51:19;8.10;;;5.90;;
20671;SDS011;10495;50.922;4.760;2023-02-28T08:53:54;9.57;;;5.70;;
20671;SDS011;10495;50.922;4.760;2023-02-28T08:56:22;8.53;;;5.67;;
20671;SDS011;10495;50.922;4.760;2023-02-28T08:58:49;7.60;;;5.73;;
20671;SDS011;10495;50.922;4.760;2023-02-28T09:01:16;9.57;;;6.27;;
20671;SDS011;10495;50.922;4.760;2023-02-28T09:03:43;9.83;;;5.97;;
20671;SDS011;10495;50.922;4.760;2023-02-28T09:06:11;6.57;;;5.43;;
20671;SDS011;10495;50.922;4.760;2023-02-28T09:08:37;6.70;;;5.13;;
20671;SDS011;10495;50.922;4.760;2023-02-28T09:11:04;8.13;;;5.33;;
20671;SDS011;10495;50.922;4.760;2023-02-28T09:13:31;5.27;;;4.57;;
20671;SDS011;10495;50.922;4.760;2023-02-28T09:15:58;6.37;;;4.23;;
20671;SDS011;10495;50.922;4.760;2023-02-28T09:18:25;6.20;;;4.87;;
20671;SDS011;10495;50.922;4.760;2023-02-28T09:20:51;8.43;;;4.20;;
20671;SDS011;10495;50.922;4.760;2023-02-28T09:23:17;5.37;;;4.30;;
20671;SDS011;10495;50.922;4.760;2023-02-28T09:25:46;6.43;;;4.00;;
20671;SDS011;10495;50.922;4.760;2023-02-28T09:28:17;4.67;;;4.00;;
20671;SDS011;10495;50.922;4.760;2023-02-28T09:30:45;7.50;;;4.50;;
20671;SDS011;10495;50.922;4.760;2023-02-28T09:33:12;6.57;;;4.30;;
20671;SDS011;10495;50.922;4.760;2023-02-28T09:35:38;4.03;;;3.60;;
20671;SDS011;10495;50.922;4.760;2023-02-28T09:38:04;6.30;;;4.13;;
20671;SDS011;10495;50.922;4.760;2023-02-28T09:40:30;7.03;;;3.80;;
20671;SDS011;10495;50.922;4.760;2023-02-28T09:42:56;4.40;;;3.60;;
20671;SDS011;10495;50.922;4.760;2023-02-28T09:45:25;5.70;;;4.03;;
20671;SDS011;10495;50.922;4.760;2023-02-28T09:48:02;5.80;;;4.07;;
20671;SDS011;10495;50.922;4.760;2023-02-28T09:53:11;4.63;;;3.50;;
20671;SDS011;10495;50.922;4.760;2023-02-28T09:55:55;5.13;;;3.63;;
20671;SDS011;10495;50.922;4.760;2023-02-28T10:01:01;3.27;;;2.87;;
20671;SDS011;10495;50.922;4.760;2023-02-28T10:03:42;5.53;;;3.00;;
20671;SDS011;10495;50.922;4.760;2023-02-28T10:06:22;3.83;;;3.13;;
20671;SDS011;10495;50.922;4.760;2023-02-28T10:09:05;4.87;;;3.47;;
20671;SDS011;10495;50.922;4.760;2023-02-28T10:11:40;4.13;;;3.00;;
20671;SDS011;10495;50.922;4.760;2023-02-28T10:16:46;4.77;;;3.43;;
20671;SDS011;10495;50.922;4.760;2023-02-28T10:22:10;3.63;;;3.07;;
20671;SDS011;10495;50.922;4.760;2023-02-28T10:24:43;3.87;;;2.93;;
20671;SDS011;10495;50.922;4.760;2023-02-28T10:27:15;5.27;;;3.37;;
20671;SDS011;10495;50.922;4.760;2023-02-28T10:29:44;4.17;;;3.27;;
20671;SDS011;10495;50.922;4.760;2023-02-28T10:32:15;4.33;;;3.00;;
20671;SDS011;10495;50.922;4.760;2023-02-28T10:34:43;7.07;;;3.47;;
20671;SDS011;10495;50.922;4.760;2023-02-28T10:37:10;3.97;;;3.43;;
20671;SDS011;10495;50.922;4.760;2023-02-28T10:39:39;4.78;;;3.15;;
20671;SDS011;10495;50.922;4.760;2023-02-28T10:42:18;4.77;;;3.00;;
20671;SDS011;10495;50.922;4.760;2023-02-28T10:44:44;3.83;;;3.17;;
20671;SDS011;10495;50.922;4.760;2023-02-28T10:47:14;3.43;;;3.00;;
20671;SDS011;10495;50.922;4.760;2023-02-28T10:49:46;2.57;;;2.37;;
20671;SDS011;10495;50.922;4.760;2023-02-28T10:52:14;6.27;;;3.00;;
20671;SDS011;10495;50.922;4.760;2023-02-28T10:58:01;3.37;;;2.87;;
20671;SDS011;10495;50.922;4.760;2023-02-28T11:00:31;4.27;;;3.07;;
20671;SDS011;10495;50.922;4.760;2023-02-28T11:02:59;3.60;;;2.93;;
20671;SDS011;10495;50.922;4.760;2023-02-28T11:05:26;2.83;;;2.60;;
20671;SDS011;10495;50.922;4.760;2023-02-28T11:08:06;4.03;;;2.83;;
20671;SDS011;10495;50.922;4.760;2023-02-28T11:10:37;5.00;;;3.05;;
20671;SDS011;10495;50.922;4.760;2023-02-28T11:13:03;3.10;;;2.73;;
20671;SDS011;10495;50.922;4.760;2023-02-28T11:15:31;3.67;;;2.67;;
20671;SDS011;10495;50.922;4.760;2023-02-28T11:18:41;5.13;;;3.10;;
20671;SDS011;10495;50.922;4.760;2023-02-28T11:21:02;3.43;;;2.40;;
20671;SDS011;10495;50.922;4.760;2023-02-28T11:23:29;4.30;;;2.73;;
20671;SDS011;10495;50.922;4.760;2023-02-28T11:25:59;5.77;;;2.53;;
20671;SDS011;10495;50.922;4.760;2023-02-28T11:31:03;6.67;;;3.17;;
20671;SDS011;10495;50.922;4.760;2023-02-28T11:33:50;4.53;;;2.73;;
20671;SDS011;10495;50.922;4.760;2023-02-28T11:36:27;4.20;;;2.60;;
20671;SDS011;10495;50.922;4.760;2023-02-28T11:38:55;3.17;;;2.70;;
20671;SDS011;10495;50.922;4.760;2023-02-28T11:49:18;5.87;;;2.73;;
20671;SDS011;10495;50.922;4.760;2023-02-28T11:52:20;3.33;;;2.73;;
20671;SDS011;10495;50.922;4.760;2023-02-28T12:01:04;3.50;;;2.80;;
20671;SDS011;10495;50.922;4.760;2023-02-28T12:03:37;3.60;;;2.80;;
20671;SDS011;10495;50.922;4.760;2023-02-28T12:20:05;6.13;;;3.17;;
20671;SDS011;10495;50.922;4.760;2023-02-28T12:28:12;7.07;;;3.33;;
20671;SDS011;10495;50.922;4.760;2023-02-28T12:30:47;3.27;;;2.60;;
20671;SDS011;10495;50.922;4.760;2023-02-28T12:33:20;3.73;;;2.60;;
20671;SDS011;10495;50.922;4.760;2023-02-28T12:35:51;3.37;;;2.87;;
20671;SDS011;10495;50.922;4.760;2023-02-28T12:43:22;3.20;;;2.50;;
20671;SDS011;10495;50.922;4.760;2023-02-28T12:46:02;3.87;;;2.80;;
20671;SDS011;10495;50.922;4.760;2023-02-28T12:51:09;3.70;;;2.60;;
20671;SDS011;10495;50.922;4.760;2023-02-28T12:56:32;2.87;;;2.53;;
20671;SDS011;10495;50.922;4.760;2023-02-28T13:09:40;3.40;;;3.10;;
20671;SDS011;10495;50.922;4.760;2023-02-28T13:12:13;3.57;;;3.20;;
20671;SDS011;10495;50.922;4.760;2023-02-28T13:14:40;4.20;;;3.27;;
20671;SDS011;10495;50.922;4.760;2023-02-28T13:19:35;4.13;;;3.10;;
20671;SDS011;10495;50.922;4.760;2023-02-28T13:22:02;6.17;;;2.97;;
20671;SDS011;10495;50.922;4.760;2023-02-28T13:24:42;4.40;;;3.17;;
20671;SDS011;10495;50.922;4.760;2023-02-28T13:27:11;3.37;;;3.00;;
20671;SDS011;10495;50.922;4.760;2023-02-28T13:29:41;13.33;;;3.00;;
20671;SDS011;10495;50.922;4.760;2023-02-28T13:47:28;4.30;;;3.50;;
20671;SDS011;10495;50.922;4.760;2023-02-28T13:50:14;4.00;;;2.70;;
20671;SDS011;10495;50.922;4.760;2023-02-28T13:55:54;4.10;;;3.40;;
20671;SDS011;10495;50.922;4.760;2023-02-28T13:58:48;7.30;;;3.77;;
20671;SDS011;10495;50.922;4.760;2023-02-28T14:01:31;5.67;;;3.20;;
20671;SDS011;10495;50.922;4.760;2023-02-28T14:04:18;4.33;;;3.53;;
20671;SDS011;10495;50.922;4.760;2023-02-28T14:06:58;4.70;;;3.80;;
20671;SDS011;10495;50.922;4.760;2023-02-28T14:09:35;5.63;;;3.70;;
20671;SDS011;10495;50.922;4.760;2023-02-28T14:15:26;4.83;;;3.60;;
20671;SDS011;10495;50.922;4.760;2023-02-28T14:17:54;5.47;;;4.87;;
20671;SDS011;10495;50.922;4.760;2023-02-28T14:20:21;5.07;;;3.57;;
20671;SDS011;10495;50.922;4.760;2023-02-28T14:25:44;4.87;;;4.10;;
20671;SDS011;10495;50.922;4.760;2023-02-28T14:28:23;4.57;;;3.63;;
20671;SDS011;10495;50.922;4.760;2023-02-28T14:31:13;6.93;;;3.90;;
20671;SDS011;10495;50.922;4.760;2023-02-28T14:36:39;5.40;;;3.60;;
20671;SDS011;10495;50.922;4.760;2023-02-28T14:39:07;5.10;;;3.73;;
20671;SDS011;10495;50.922;4.760;2023-02-28T14:41:41;4.00;;;3.60;;
20671;SDS011;10495;50.922;4.760;2023-02-28T14:46:40;4.07;;;3.37;;
20671;SDS011;10495;50.922;4.760;2023-02-28T14:49:07;7.03;;;3.50;;
20671;SDS011;10495;50.922;4.760;2023-02-28T14:51:40;10.17;;;4.30;;
20671;SDS011;10495;50.922;4.760;2023-02-28T14:54:05;8.20;;;3.67;;
20671;SDS011;10495;50.922;4.760;2023-02-28T14:56:35;4.77;;;3.57;;
20671;SDS011;10495;50.922;4.760;2023-02-28T14:59:03;4.10;;;3.70;;
20671;SDS011;10495;50.922;4.760;2023-02-28T15:01:30;3.83;;;3.43;;
20671;SDS011;10495;50.922;4.760;2023-02-28T15:03:59;4.13;;;3.40;;
20671;SDS011;10495;50.922;4.760;2023-02-28T15:06:30;4.47;;;3.60;;
20671;SDS011;10495;50.922;4.760;2023-02-28T15:09:15;4.97;;;3.60;;
20671;SDS011;10495;50.922;4.760;2023-02-28T15:11:47;3.93;;;3.50;;
20671;SDS011;10495;50.922;4.760;2023-02-28T15:14:15;5.17;;;3.60;;
20671;SDS011;10495;50.922;4.760;2023-02-28T15:16:44;6.37;;;3.73;;
20671;SDS011;10495;50.922;4.760;2023-02-28T15:19:24;4.27;;;3.77;;
20671;SDS011;10495;50.922;4.760;2023-02-28T15:22:28;4.83;;;3.80;;
20671;SDS011;10495;50.922;4.760;2023-02-28T15:24:54;4.97;;;3.90;;
20671;SDS011;10495;50.922;4.760;2023-02-28T15:27:22;7.57;;;3.80;;
20671;SDS011;10495;50.922;4.760;2023-02-28T15:29:58;5.53;;;3.83;;
20671;SDS011;10495;50.922;4.760;2023-02-28T15:32:38;4.53;;;3.83;;
20671;SDS011;10495;50.922;4.760;2023-02-28T15:43:34;4.60;;;3.80;;
20671;SDS011;10495;50.922;4.760;2023-02-28T15:46:02;7.37;;;3.50;;
20671;SDS011;10495;50.922;4.760;2023-02-28T15:48:32;8.40;;;4.10;;
20671;SDS011;10495;50.922;4.760;2023-02-28T15:51:07;4.77;;;3.33;;
20671;SDS011;10495;50.922;4.760;2023-02-28T15:53:48;4.60;;;4.00;;
20671;SDS011;10495;50.922;4.760;2023-02-28T15:58:53;7.68;;;4.10;;
20671;SDS011;10495;50.922;4.760;2023-02-28T16:01:33;4.43;;;3.70;;
20671;SDS011;10495;50.922;4.760;2023-02-28T16:04:04;6.57;;;4.15;;
20671;SDS011;10495;50.922;4.760;2023-02-28T16:06:43;10.13;;;5.57;;
20671;SDS011;10495;50.922;4.760;2023-02-28T16:09:14;6.82;;;5.00;;
20671;SDS011;10495;50.922;4.760;2023-02-28T16:11:48;14.83;;;10.00;;
20671;SDS011;10495;50.922;4.760;2023-02-28T16:14:16;8.73;;;6.60;;
20671;SDS011;10495;50.922;4.760;2023-02-28T16:16:52;11.13;;;5.50;;
20671;SDS011;10495;50.922;4.760;2023-02-28T16:19:20;4.20;;;3.30;;
20671;SDS011;10495;50.922;4.760;2023-02-28T16:21:47;7.00;;;5.37;;
20671;SDS011;10495;50.922;4.760;2023-02-28T16:24:13;9.20;;;4.60;;
20671;SDS011;10495;50.922;4.760;2023-02-28T16:26:42;7.03;;;4.13;;
20671;SDS011;10495;50.922;4.760;2023-02-28T16:29:16;7.27;;;4.03;;
20671;SDS011;10495;50.922;4.760;2023-02-28T16:31:49;6.10;;;3.80;;
20671;SDS011;10495;50.922;4.760;2023-02-28T16:34:15;8.37;;;5.10;;
20671;SDS011;10495;50.922;4.760;2023-02-28T16:36:40;6.87;;;4.80;;
20671;SDS011;10495;50.922;4.760;2023-02-28T16:39:06;9.67;;;3.53;;
20671;SDS011;10495;50.922;4.760;2023-02-28T16:41:33;5.87;;;4.70;;
20671;SDS011;10495;50.922;4.760;2023-02-28T16:43:59;7.43;;;4.40;;
20671;SDS011;10495;50.922;4.760;2023-02-28T16:46:33;7.57;;;4.97;;
20671;SDS011;10495;50.922;4.760;2023-02-28T16:48:59;8.73;;;6.13;;
20671;SDS011;10495;50.922;4.760;2023-02-28T16:51:25;18.83;;;11.73;;
20671;SDS011;10495;50.922;4.760;2023-02-28T16:53:51;13.88;;;9.00;;
20671;SDS011;10495;50.922;4.760;2023-02-28T16:56:21;18.70;;;10.95;;
20671;SDS011;10495;50.922;4.760;2023-02-28T16:58:49;38.92;;;25.65;;
20671;SDS011;10495;50.922;4.760;2023-02-28T17:01:16;11.52;;;8.05;;
20671;SDS011;10495;50.922;4.760;2023-02-28T17:03:46;11.40;;;5.87;;
20671;SDS011;10495;50.922;4.760;2023-02-28T17:06:20;7.40;;;5.57;;
20671;SDS011;10495;50.922;4.760;2023-02-28T17:08:49;13.87;;;10.37;;
20671;SDS011;10495;50.922;4.760;2023-02-28T17:11:15;8.10;;;4.97;;
20671;SDS011;10495;50.922;4.760;2023-02-28T17:13:42;6.13;;;4.07;;
20671;SDS011;10495;50.922;4.760;2023-02-28T17:16:17;13.27;;;7.20;;
20671;SDS011;10495;50.922;4.760;2023-02-28T17:18:54;11.70;;;9.23;;
20671;SDS011;10495;50.922;4.760;2023-02-28T17:21:23;8.23;;;5.30;;